Time;durP1;ratioP1;P1;durP2;ratioP2;P2;SDS_P1;SDS_P2;PMS_P1;PMS_P2;Temp;Humidity;BMP_temperature;BMP_pressure;BME280_temperature;BME280_humidity;BME280_pressure;Samples;Min_cycle;Max_cycle;Signal;HPM_P1;HPM_P2
2023/04/25 00:00:39;;;;;;;;;;;;;;;;;;5052989;28;19975;-64
2023/04/25 00:03:05;;;;;;;;;;;;;;;;;;5052298;28;19929;-64
2023/04/25 00:05:31;;;;;;;;;;;;;;;;;;5053601;28;19943;-64
2023/04/25 00:07:57;;;;;;;;;;;;;;;;;;5053006;28;19924;-64
2023/04/25 00:10:23;;;;;;;;;;;;;;;;;;5053235;28;19970;-64
2023/04/25 00:12:49;;;;;;;;;;;;;;;;;;5053280;28;20357;-64
2023/04/25 00:15:15;;;;;;;;;;;;;;;;;;5053410;28;19928;-64
2023/04/25 00:17:42;;;;;;;;;;;;;;;;;;5052721;28;19932;-64
2023/04/25 00:20:09;;;;;;;;;;;;;;;;;;5053132;28;19921;-64
2023/04/25 00:22:37;;;;;;;;;;;;;;;;;;5052768;28;19979;-64
2023/04/25 00:25:03;;;;;;;;;;;;;;;;;;5052231;28;19932;-64
2023/04/25 00:27:29;;;;;;;;;;;;;;;;;;5052793;28;19990;-64
2023/04/25 00:29:55;;;;;;;;;;;;;;;;;;5052804;28;20271;-64
2023/04/25 00:32:21;;;;;;;;;;;;;;;;;;5052229;28;19920;-64
2023/04/25 00:34:47;;;;;;;;;;;;;;;;;;5052892;28;19925;-64
2023/04/25 00:37:13;;;;;;;;;;;;;;;;;;5052746;28;19925;-64
2023/04/25 00:39:39;;;;;;;;;;;;;;;;;;5052146;28;19924;-64
2023/04/25 00:42:05;;;;;;;;;;;;;;;;;;5052662;28;19952;-64
2023/04/25 00:44:32;;;;;;;;;;;;;;;;;;5052647;28;19925;-64
2023/04/25 00:46:57;;;;;;;;;;;;;;;;;;5051723;28;20353;-64
2023/04/25 00:49:23;;;;;;;;;;;;;;;;;;5052293;28;19971;-64
2023/04/25 00:51:49;;;;;;;;;;;;;;;;;;5052373;28;20079;-64
2023/04/25 00:54:15;;;;;;;;;;;;;;;;;;5050311;28;19924;-64
2023/04/25 00:56:41;;;;;;;;;;;;;;;;;;5051274;28;19927;-64
2023/04/25 00:59:07;;;;;;;;;;;;;;;;;;5052460;28;20359;-64
2023/04/25 01:01:33;;;;;;;;;;;;;;;;;;5050925;28;19928;-64
2023/04/25 01:03:59;;;;;;;;;;;;;;;;;;5052244;28;19920;-64
2023/04/25 01:06:25;;;;;;;;;;;;;;;;;;5052181;28;19924;-64
2023/04/25 01:08:51;;;;;;;;;;;;;;;;;;5051551;28;19929;-64
2023/04/25 01:11:17;;;;;;;;;;;;;;;;;;5052157;28;19921;-64
2023/04/25 01:13:43;;;;;;;;;;;;;;;;;;5052207;28;19925;-64
2023/04/25 01:16:09;;;;;;;;;;;;;;;;;;5051474;28;20007;-64
2023/04/25 01:18:35;;;;;;;;;;;;;;;;;;5050496;28;19928;-64
2023/04/25 01:21:01;;;;;;;;;;;;;;;;;;5051630;28;19940;-64
2023/04/25 01:23:27;;;;;;;;;;;;;;;;;;5050967;28;20741;-64
2023/04/25 01:25:53;;;;;;;;;;;;;;;;;;5051607;28;19925;-64
2023/04/25 01:28:19;;;;;;;;;;;;;;;;;;5051854;28;19973;-64
2023/04/25 01:30:45;;;;;;;;;;;;;;;;;;5051187;28;19924;-64
2023/04/25 01:33:11;;;;;;;;;;;;;;;;;;5051916;28;19970;-64
2023/04/25 01:35:37;;;;;;;;;;;;;;;;;;5051657;28;19920;-64
2023/04/25 01:38:03;;;;;;;;;;;;;;;;;;5051004;28;20008;-64
2023/04/25 01:40:29;;;;;;;;;;;;;;;;;;5051596;28;20011;-64
2023/04/25 01:42:54;;;;;;;;;;;;;;;;;;5051736;28;20168;-64
2023/04/25 01:45:20;;;;;;;;;;;;;;;;;;5051002;28;19966;-64
2023/04/25 01:47:48;;;;;;;;;;;;;;;;;;5051435;28;20074;-64
2023/04/25 01:50:14;;;;;;;;;;;;;;;;;;5051245;28;19989;-64
2023/04/25 01:52:40;;;;;;;;;;;;;;;;;;5050760;28;20403;-64
2023/04/25 01:55:06;;;;;;;;;;;;;;;;;;5050221;28;19920;-64
2023/04/25 01:57:32;;;;;;;;;;;;;;;;;;5049772;28;19921;-64
2023/04/25 01:59:58;;;;;;;;;;;;;;;;;;5050875;28;20086;-64
2023/04/25 02:02:24;;;;;;;;;;;;;;;;;;5049590;28;20027;-64
2023/04/25 02:04:50;;;;;;;;;;;;;;;;;;5051365;28;20407;-64
2023/04/25 02:07:16;;;;;;;;;;;;;;;;;;5049172;28;19925;-64
2023/04/25 02:09:42;;;;;;;;;;;;;;;;;;5051231;28;19926;-64
2023/04/25 02:12:08;;;;;;;;;;;;;;;;;;5050974;28;19925;-64
2023/04/25 02:14:34;;;;;;;;;;;;;;;;;;5050555;28;19956;-64
2023/04/25 02:17:00;;;;;;;;;;;;;;;;;;5051185;28;19921;-64
2023/04/25 02:19:26;;;;;;;;;;;;;;;;;;5051106;28;19925;-64
2023/04/25 02:21:52;;;;;;;;;;;;;;;;;;5048941;28;19925;-64
2023/04/25 02:24:18;;;;;;;;;;;;;;;;;;5050675;28;19951;-64
2023/04/25 02:26:44;;;;;;;;;;;;;;;;;;5050361;28;19964;-64
2023/04/25 02:29:10;;;;;;;;;;;;;;;;;;5050373;28;19929;-64
2023/04/25 02:31:36;;;;;;;;;;;;;;;;;;5050888;28;20340;-64
2023/04/25 02:34:02;;;;;;;;;;;;;;;;;;5050966;28;19920;-64
2023/04/25 02:36:30;;;;;;;;;;;;;;;;;;5050492;28;19921;-64
2023/04/25 02:38:56;;;;;;;;;;;;;;;;;;5050665;28;19925;-64
2023/04/25 02:41:24;;;;;;;;;;;;;;;;;;5049313;28;20337;-64
2023/04/25 02:43:50;;;;;;;;;;;;;;;;;;5050499;28;19924;-64
2023/04/25 02:46:16;;;;;;;;;;;;;;;;;;5050918;28;19921;-64
2023/04/25 02:48:42;;;;;;;;;;;;;;;;;;5050640;28;19925;-64
2023/04/25 02:51:08;;;;;;;;;;;;;;;;;;5050257;28;19924;-64
2023/04/25 02:53:34;;;;;;;;;;;;;;;;;;5050540;28;20082;-64
2023/04/25 02:56:00;;;;;;;;;;;;;;;;;;5050395;28;19982;-64
2023/04/25 02:58:26;;;;;;;;;;;;;;;;;;5050220;28;19931;-64
2023/04/25 03:00:52;;;;;;;;;;;;;;;;;;5049107;28;19924;-64
2023/04/25 03:03:21;;;;;;;;;;;;;;;;;;5050703;28;19979;-64
2023/04/25 03:05:47;;;;;;;;;;;;;;;;;;5049948;28;19931;-64
2023/04/25 03:08:13;;;;;;;;;;;;;;;;;;5050562;28;20003;-64
2023/04/25 03:10:39;;;;;;;;;;;;;;;;;;5050485;28;20047;-64
2023/04/25 03:13:05;;;;;;;;;;;;;;;;;;5050104;28;19998;-64
2023/04/25 03:15:31;;;;;;;;;;;;;;;;;;5050556;28;19927;-64
2023/04/25 03:17:57;;;;;;;;;;;;;;;;;;5050608;28;19954;-64
2023/04/25 03:20:23;;;;;;;;;;;;;;;;;;5049918;28;19921;-64
2023/04/25 03:22:49;;;;;;;;;;;;;;;;;;5050086;28;19933;-64
2023/04/25 03:25:15;;;;;;;;;;;;;;;;;;5051725;28;20055;-64
2023/04/25 03:27:41;;;;;;;;;;;;;;;;;;5054146;28;20406;-64
2023/04/25 03:30:07;;;;;;;;;;;;;;;;;;5053593;28;19924;-64
2023/04/25 03:32:33;;;;;;;;;;;;;;;;;;5054053;28;20375;-64
2023/04/25 03:34:59;;;;;;;;;;;;;;;;;;5054097;28;19921;-64
2023/04/25 03:37:25;;;;;;;;;;;;;;;;;;5053232;28;19983;-64
2023/04/25 03:39:51;;;;;;;;;;;;;;;;;;5053936;28;20322;-64
2023/04/25 03:42:17;;;;;;;;;;;;;;;;;;5053784;28;19920;-64
2023/04/25 03:44:43;;;;;;;;;;;;;;;;;;5053420;28;20020;-64
2023/04/25 03:47:09;;;;;;;;;;;;;;;;;;5053755;28;20003;-64
2023/04/25 03:49:35;;;;;;;;;;;;;;;;;;5053531;28;19991;-64
2023/04/25 03:52:01;;;;;;;;;;;;;;;;;;5052921;28;19928;-64
2023/04/25 03:54:27;;;;;;;;;;;;;;;;;;5053669;28;19925;-64
2023/04/25 03:56:53;;;;;;;;;;;;;;;;;;5053575;28;19920;-64
2023/04/25 03:59:19;;;;;;;;;;;;;;;;;;5053065;28;19939;-64
2023/04/25 04:01:45;;;;;;;;;;;;;;;;;;5053190;28;19974;-64
2023/04/25 04:04:11;;;;;;;;;;;;;;;;;;5053525;28;19979;-64
2023/04/25 04:06:37;;;;;;;;;;;;;;;;;;5052920;28;19925;-64
2023/04/25 04:09:03;;;;;;;;;;;;;;;;;;5053433;28;20288;-64
2023/04/25 04:11:29;;;;;;;;;;;;;;;;;;5053307;28;20772;-64
2023/04/25 04:13:55;;;;;;;;;;;;;;;;;;5052713;28;20414;-64
2023/04/25 04:16:24;;;;;;;;;;;;;;;;;;5051966;28;20051;-64
2023/04/25 04:18:50;;;;;;;;;;;;;;;;;;5053141;28;19928;-64
2023/04/25 04:21:16;;;;;;;;;;;;;;;;;;5052370;28;20287;-64
2023/04/25 04:23:41;;;;;;;;;;;;;;;;;;5052623;28;19928;-64
2023/04/25 04:26:08;;;;;;;;;;;;;;;;;;5052989;28;19922;-64
2023/04/25 04:28:35;;;;;;;;;;;;;;;;;;5052445;28;20011;-63
2023/04/25 04:31:02;;;;;;;;;;;;;;;;;;5052876;28;20642;-64
2023/04/25 04:33:29;;;;;;;;;;;;;;;;;;5052683;28;20407;-64
2023/04/25 04:35:55;;;;;;;;;;;;;;;;;;5052529;28;19924;-64
2023/04/25 04:38:21;;;;;;;;;;;;;;;;;;5053085;28;20309;-64
2023/04/25 04:40:48;;;;;;;;;;;;;;;;;;5053200;28;19921;-64
2023/04/25 04:43:14;;;;;;;;;;;;;;;;;;5052529;28;19930;-64
2023/04/25 04:45:40;;;;;;;;;;;;;;;;;;5053177;28;19924;-64
2023/04/25 04:48:06;;;;;;;;;;;;;;;;;;5052926;28;20766;-64
2023/04/25 04:50:32;;;;;;;;;;;;;;;;;;5052229;28;19924;-64
2023/04/25 04:52:58;;;;;;;;;;;;;;;;;;5051483;28;19920;-64
2023/04/25 04:55:24;;;;;;;;;;;;;;;;;;5052901;28;19952;-64
2023/04/25 04:57:50;;;;;;;;;;;;;;;;;;5052108;28;20061;-64
2023/04/25 05:00:16;;;;;;;;;;;;;;;;;;5052938;28;19956;-64
2023/04/25 05:02:42;;;;;;;;;;;;;;;;;;5052571;28;20303;-64
2023/04/25 05:05:08;;;;;;;;;;;;;;;;;;5050716;28;20019;-64
2023/04/25 05:07:34;;;;;;;;;;;;;;;;;;5052229;28;19921;-64
2023/04/25 05:10:00;;;;;;;;;;;;;;;;;;5051112;28;19929;-64
2023/04/25 05:12:26;;;;;;;;;;;;;;;;;;5051998;28;19921;-64
2023/04/25 05:14:52;;;;;;;;;;;;;;;;;;5052526;28;19924;-64
2023/04/25 05:17:18;;;;;;;;;;;;;;;;;;5052330;28;19963;-64
2023/04/25 05:19:44;;;;;;;;;;;;;;;;;;5051735;28;19929;-64
2023/04/25 05:22:10;;;;;;;;;;;;;;;;;;5052360;28;19925;-64
2023/04/25 05:24:36;;;;;;;;;;;;;;;;;;5052012;28;19973;-63
2023/04/25 05:27:02;;;;;;;;;;;;;;;;;;5051257;28;19921;-63
2023/04/25 05:29:28;;;;;;;;;;;;;;;;;;5050925;28;19931;-64
2023/04/25 05:31:54;;;;;;;;;;;;;;;;;;5052299;28;19928;-64
2023/04/25 05:34:20;;;;;;;;;;;;;;;;;;5051534;28;19939;-64
2023/04/25 05:36:48;;;;;;;;;;;;;;;;;;5052096;28;20363;-64
2023/04/25 05:39:14;;;;;;;;;;;;;;;;;;5052003;28;19925;-64
2023/04/25 05:41:40;;;;;;;;;;;;;;;;;;5051447;28;19944;-64
2023/04/25 05:44:06;;;;;;;;;;;;;;;;;;5052088;28;19928;-64
2023/04/25 05:46:32;;;;;;;;;;;;;;;;;;5051450;28;20012;-64
2023/04/25 05:48:58;;;;;;;;;;;;;;;;;;5051238;28;20007;-64
2023/04/25 05:51:24;;;;;;;;;;;;;;;;;;5051735;28;19925;-64
2023/04/25 05:53:49;;;;;;;;;;;;;;;;;;5051801;28;19929;-64
2023/04/25 05:56:15;;;;;;;;;;;;;;;;;;5050757;28;19948;-63
2023/04/25 05:58:41;;;;;;;;;;;;;;;;;;5049064;28;19925;-63
2023/04/25 06:01:08;;;;;;;;;;;;;;;;;;5051276;28;19925;-62
2023/04/25 06:03:34;;;;;;;;;;;;;;;;;;5050514;28;19924;-63
2023/04/25 06:06:00;;;;;;;;;;;;;;;;;;5051487;28;19924;-63
2023/04/25 06:08:26;;;;;;;;;;;;;;;;;;5051093;28;19927;-63
2023/04/25 06:10:52;;;;;;;;;;;;;;;;;;5050464;28;19956;-63
2023/04/25 06:13:18;;;;;;;;;;;;;;;;;;5051183;28;19929;-63
2023/04/25 06:15:44;;;;;;;;;;;;;;;;;;5050790;28;20043;-63
2023/04/25 06:18:10;;;;;;;;;;;;;;;;;;5050108;28;19929;-64
2023/04/25 06:20:36;;;;;;;;;;;;;;;;;;5051270;28;19950;-63
2023/04/25 06:23:02;;;;;;;;;;;;;;;;;;5049358;28;19929;-62
2023/04/25 06:25:28;;;;;;;;;;;;;;;;;;5049135;28;19921;-62
2023/04/25 06:27:54;;;;;;;;;;;;;;;;;;5051024;28;20359;-62
2023/04/25 06:30:24;;;;;;;;;;;;;;;;;;5051038;28;19973;-61
2023/04/25 06:32:50;;;;;;;;;;;;;;;;;;5050662;28;20383;-62
2023/04/25 06:35:16;;;;;;;;;;;;;;;;;;5050654;28;19925;-62
2023/04/25 06:37:42;;;;;;;;;;;;;;;;;;5051222;28;19972;-62
2023/04/25 06:40:08;;;;;;;;;;;;;;;;;;5050611;28;19924;-62
2023/04/25 06:42:34;;;;;;;;;;;;;;;;;;5049761;28;19946;-63
2023/04/25 06:45:00;;;;;;;;;;;;;;;;;;5050631;28;20006;-63
2023/04/25 06:47:26;;;;;;;;;;;;;;;;;;5050046;28;19924;-63
2023/04/25 06:49:52;;;;;;;;;;;;;;;;;;5049820;28;19921;-63
2023/04/25 06:52:18;;;;;;;;;;;;;;;;;;5050735;28;19924;-64
2023/04/25 06:54:44;;;;;;;;;;;;;;;;;;5050452;28;19928;-63
2023/04/25 06:57:10;;;;;;;;;;;;;;;;;;5050425;28;19925;-63
2023/04/25 06:59:36;;;;;;;;;;;;;;;;;;5052073;28;20497;-63
2023/04/25 07:02:03;;;;;;;;;;;;;;;;;;5046659;28;19990;-62
2023/04/25 07:04:30;;;;;;;;;;;;;;;;;;5051061;28;20283;-62
2023/04/25 07:06:56;;;;;;;;;;;;;;;;;;5052543;28;19929;-62
2023/04/25 07:09:22;;;;;;;;;;;;;;;;;;5046219;28;19920;-63
2023/04/25 07:11:48;;;;;;;;;;;;;;;;;;5052394;28;20267;-53
2023/04/25 07:14:14;;;;;;;;;;;;;;;;;;5053101;28;20367;-56
2023/04/25 07:16:41;;;;;;;;;;;;;;;;;;5053596;28;19931;-57
2023/04/25 07:19:07;;;;;;;;;;;;;;;;;;5052680;28;19925;-58
2023/04/25 07:21:33;;;;;;;;;;;;;;;;;;5072608;28;19991;-58
2023/04/25 07:23:59;;;;;;;;;;;;;;;;;;5052238;28;19929;-58
2023/04/25 07:26:25;;;;;;;;;;;;;;;;;;5050183;28;19925;-58
2023/04/25 07:28:51;;;;;;;;;;;;;;;;;;5051098;28;19929;-57
2023/04/25 07:31:18;;;;;;;;;;;;;;;;;;5052577;28;19928;-58
2023/04/25 07:33:44;;;;;;;;;;;;;;;;;;5052475;28;19928;-57
2023/04/25 07:36:10;;;;;;;;;;;;;;;;;;5052992;28;20310;-57
2023/04/25 07:38:36;;;;;;;;;;;;;;;;;;5051631;28;19975;-58
2023/04/25 07:41:02;;;;;;;;;;;;;;;;;;5049447;28;19929;-55
2023/04/25 07:43:28;;;;;;;;;;;;;;;;;;5052299;28;19982;-57
2023/04/25 07:45:54;;;;;;;;;;;;;;;;;;5047023;28;19928;-57
2023/04/25 07:48:20;;;;;;;;;;;;;;;;;;5036970;28;19931;-56
2023/04/25 07:50:46;;;;;;;;;;;;;;;;;;5051891;28;19925;-56
2023/04/25 07:53:12;;;;;;;;;;;;;;;;;;5052384;28;19925;-54
2023/04/25 07:55:39;;;;;;;;;;;;;;;;;;5047723;28;19925;-57
2023/04/25 07:58:05;;;;;;;;;;;;;;;;;;5048633;28;19975;-57
2023/04/25 08:00:31;;;;;;;;;;;;;;;;;;5046503;28;20337;-58
2023/04/25 08:02:57;;;;;;;;;;;;;;;;;;5051775;28;20035;-58
2023/04/25 08:05:23;;;;;;;;;;;;;;;;;;5052662;28;19920;-56
2023/04/25 08:07:49;;;;;;;;;;;;;;;;;;5052396;28;19997;-56
2023/04/25 08:10:15;;;;;;;;;;;;;;;;;;5050698;28;20027;-59
2023/04/25 08:12:41;;;;;;;;;;;;;;;;;;5052259;28;19948;-55
2023/04/25 08:15:07;;;;;;;;;;;;;;;;;;5051775;28;19952;-58
2023/04/25 08:17:33;;;;;;;;;;;;;;;;;;5052000;28;19985;-58
2023/04/25 08:19:59;;;;;;;;;;;;;;;;;;5052322;28;19928;-59
2023/04/25 08:22:25;;;;;;;;;;;;;;;;;;5051451;28;19932;-59
2023/04/25 08:24:51;;;;;;;;;;;;;;;;;;5046598;28;19929;-58
2023/04/25 08:27:17;;;;;;;;;;;;;;;;;;5049941;28;20335;-58
2023/04/25 08:29:43;;;;;;;;;;;;;;;;;;5047658;28;19920;-57
2023/04/25 08:32:09;;;;;;;;;;;;;;;;;;5051618;28;19921;-59
2023/04/25 08:34:36;;;;;;;;;;;;;;;;;;5046337;28;20420;-59
2023/04/25 08:37:04;;;;;;;;;;;;;;;;;;5043375;28;20062;-57
2023/04/25 08:39:30;;;;;;;;;;;;;;;;;;5051488;28;19929;-58
2023/04/25 08:41:56;;;;;;;;;;;;;;;;;;5051207;28;20398;-57
2023/04/25 08:44:22;;;;;;;;;;;;;;;;;;5050358;28;20046;-59
2023/04/25 08:46:51;;;;;;;;;;;;;;;;;;5049347;28;19986;-57
2023/04/25 08:49:17;;;;;;;;;;;;;;;;;;5051513;28;19921;-58
2023/04/25 08:51:43;;;;;;;;;;;;;;;;;;5051883;28;19924;-58
2023/04/25 08:54:09;;;;;;;;;;;;;;;;;;5051177;28;19948;-58
2023/04/25 08:56:35;;;;;;;;;;;;;;;;;;5051888;28;20385;-58
2023/04/25 08:59:01;;;;;;;;;;;;;;;;;;5051137;28;19925;-57
2023/04/25 09:01:27;;;;;;;;;;;;;;;;;;5036863;28;19924;-58
2023/04/25 09:03:53;;;;;;;;;;;;;;;;;;5050128;28;19925;-58
2023/04/25 09:06:19;;;;;;;;;;;;;;;;;;5044457;28;19944;-59
2023/04/25 09:08:45;;;;;;;;;;;;;;;;;;5045200;28;19921;-58
2023/04/25 09:11:11;;;;;;;;;;;;;;;;;;5049763;28;20055;-59
2023/04/25 09:13:37;;;;;;;;;;;;;;;;;;5050578;28;20003;-59
2023/04/25 09:16:03;;;;;;;;;;;;;;;;;;5049987;28;19943;-56
2023/04/25 09:18:29;;;;;;;;;;;;;;;;;;5050737;28;19971;-59
2023/04/25 09:20:55;;;;;;;;;;;;;;;;;;5049712;28;19939;-57
2023/04/25 09:23:21;;;;;;;;;;;;;;;;;;5049196;28;19933;-59
2023/04/25 09:25:47;;;;;;;;;;;;;;;;;;5050655;28;19978;-62
2023/04/25 09:28:13;;;;;;;;;;;;;;;;;;5049475;28;19933;-60
2023/04/25 09:30:39;;;;;;;;;;;;;;;;;;5043130;28;19928;-60
2023/04/25 09:33:05;;;;;;;;;;;;;;;;;;5051420;28;19920;-60
2023/04/25 09:35:31;;;;;;;;;;;;;;;;;;5050865;28;20381;-60
2023/04/25 09:37:57;;;;;;;;;;;;;;;;;;5049321;28;19929;-61
2023/04/25 09:40:23;;;;;;;;;;;;;;;;;;5042098;28;19928;-61
2023/04/25 09:42:49;;;;;;;;;;;;;;;;;;5050348;28;19929;-61
2023/04/25 09:45:15;;;;;;;;;;;;;;;;;;5049873;28;19979;-60
2023/04/25 09:47:43;;;;;;;;;;;;;;;;;;5050636;28;19924;-60
2023/04/25 09:50:09;;;;;;;;;;;;;;;;;;5050430;28;19971;-61
2023/04/25 09:52:35;;;;;;;;;;;;;;;;;;5049935;28;19928;-61
2023/04/25 09:55:01;;;;;;;;;;;;;;;;;;5050128;28;19925;-61
2023/04/25 09:57:27;;;;;;;;;;;;;;;;;;5050399;28;20461;-61
2023/04/25 09:59:53;;;;;;;;;;;;;;;;;;5044665;28;19991;-60
2023/04/25 10:02:20;;;;;;;;;;;;;;;;;;5050144;28;20003;-58
2023/04/25 10:04:46;;;;;;;;;;;;;;;;;;5045600;28;19928;-60
2023/04/25 10:07:12;;;;;;;;;;;;;;;;;;5050087;28;20287;-60
2023/04/25 10:09:39;;;;;;;;;;;;;;;;;;5047566;28;19948;-60
2023/04/25 10:12:05;;;;;;;;;;;;;;;;;;5047936;28;19927;-60
2023/04/25 10:14:31;;;;;;;;;;;;;;;;;;5048952;28;20426;-60
2023/04/25 10:16:57;;;;;;;;;;;;;;;;;;5049553;28;19924;-60
2023/04/25 10:19:23;;;;;;;;;;;;;;;;;;5050376;28;19936;-61
2023/04/25 10:21:49;;;;;;;;;;;;;;;;;;5046034;28;21260;-60
2023/04/25 10:24:15;;;;;;;;;;;;;;;;;;5049037;28;19925;-60
2023/04/25 10:26:41;;;;;;;;;;;;;;;;;;5075705;28;19970;-60
2023/04/25 10:29:07;;;;;;;;;;;;;;;;;;5050357;28;19920;-61
2023/04/25 10:31:34;;;;;;;;;;;;;;;;;;5049095;28;19925;-61
2023/04/25 10:34:00;;;;;;;;;;;;;;;;;;5053456;28;19958;-61
2023/04/25 10:36:30;;;;;;;;;;;;;;;;;;5054702;28;19925;-61
2023/04/25 10:38:58;;;;;;;;;;;;;;;;;;5053755;28;19933;-61
2023/04/25 10:41:24;;;;;;;;;;;;;;;;;;5054343;28;19920;-61
2023/04/25 10:43:50;;;;;;;;;;;;;;;;;;5054465;28;20007;-61
2023/04/25 10:46:16;;;;;;;;;;;;;;;;;;5054362;28;19931;-61
2023/04/25 10:48:42;;;;;;;;;;;;;;;;;;5054476;28;20315;-60
2023/04/25 10:51:09;;;;;;;;;;;;;;;;;;5054742;28;20011;-61
2023/04/25 10:53:35;;;;;;;;;;;;;;;;;;5053010;28;20298;-61
2023/04/25 10:56:01;;;;;;;;;;;;;;;;;;5054474;28;19925;-61
2023/04/25 10:58:27;;;;;;;;;;;;;;;;;;5054523;28;19924;-61
2023/04/25 11:00:53;;;;;;;;;;;;;;;;;;5053703;28;19944;-61
2023/04/25 11:03:18;;;;;;;;;;;;;;;;;;5052477;28;19920;-59
2023/04/25 11:05:45;;;;;;;;;;;;;;;;;;5053989;28;19944;-61
2023/04/25 11:08:11;;;;;;;;;;;;;;;;;;5053205;28;19928;-60
2023/04/25 11:10:37;;;;;;;;;;;;;;;;;;5054457;28;19921;-61
2023/04/25 11:13:03;;;;;;;;;;;;;;;;;;5053877;28;19986;-59
2023/04/25 11:15:29;;;;;;;;;;;;;;;;;;5053387;28;19990;-59
2023/04/25 11:17:55;;;;;;;;;;;;;;;;;;5054310;28;19928;-61
2023/04/25 11:20:21;;;;;;;;;;;;;;;;;;5049100;28;19924;-61
2023/04/25 11:22:47;;;;;;;;;;;;;;;;;;5038644;28;19932;-59
2023/04/25 11:25:13;;;;;;;;;;;;;;;;;;5053550;28;19995;-60
2023/04/25 11:27:40;;;;;;;;;;;;;;;;;;5053599;28;19925;-60
2023/04/25 11:30:06;;;;;;;;;;;;;;;;;;5052402;28;19924;-60
2023/04/25 11:32:32;;;;;;;;;;;;;;;;;;5052999;28;20379;-60
2023/04/25 11:34:58;;;;;;;;;;;;;;;;;;5035220;28;20007;-60
2023/04/25 11:37:24;;;;;;;;;;;;;;;;;;5053134;28;19920;-60
2023/04/25 11:39:50;;;;;;;;;;;;;;;;;;5052297;28;20400;-61
2023/04/25 11:42:16;;;;;;;;;;;;;;;;;;5046854;28;19975;-60
2023/04/25 11:44:42;;;;;;;;;;;;;;;;;;5044894;28;20279;-59
2023/04/25 11:47:08;;;;;;;;;;;;;;;;;;5040544;28;19939;-59
2023/04/25 11:49:35;;;;;;;;;;;;;;;;;;5053509;28;19932;-60
2023/04/25 11:52:01;;;;;;;;;;;;;;;;;;5052509;28;19991;-60
2023/04/25 11:54:27;;;;;;;;;;;;;;;;;;5052422;28;20359;-58
2023/04/25 11:56:53;;;;;;;;;;;;;;;;;;5053312;28;19931;-58
2023/04/25 11:59:19;;;;;;;;;;;;;;;;;;5052556;28;20031;-60
2023/04/25 12:01:45;;;;;;;;;;;;;;;;;;5053579;28;20376;-60
2023/04/25 12:04:11;;;;;;;;;;;;;;;;;;5053307;28;19946;-59
2023/04/25 12:06:39;;;;;;;;;;;;;;;;;;5047279;28;19996;-59
2023/04/25 12:09:05;;;;;;;;;;;;;;;;;;5053180;28;20295;-59
2023/04/25 12:11:32;;;;;;;;;;;;;;;;;;5052955;28;19924;-59
2023/04/25 12:13:58;;;;;;;;;;;;;;;;;;5052445;28;20515;-59
2023/04/25 12:16:24;;;;;;;;;;;;;;;;;;5052542;28;19928;-60
2023/04/25 12:18:50;;;;;;;;;;;;;;;;;;5052151;28;19932;-59
2023/04/25 12:21:16;;;;;;;;;;;;;;;;;;5051929;28;19931;-58
2023/04/25 12:23:42;;;;;;;;;;;;;;;;;;5051306;28;19924;-59
2023/04/25 12:26:08;;;;;;;;;;;;;;;;;;5051491;28;19927;-59
2023/04/25 12:28:34;;;;;;;;;;;;;;;;;;5051274;28;19931;-61
2023/04/25 12:31:00;;;;;;;;;;;;;;;;;;5051562;28;19967;-59
2023/04/25 12:33:26;;;;;;;;;;;;;;;;;;5051701;28;19979;-59
2023/04/25 12:35:52;;;;;;;;;;;;;;;;;;5051389;28;19931;-60
2023/04/25 12:38:18;;;;;;;;;;;;;;;;;;5050042;28;19921;-60
2023/04/25 12:40:44;;;;;;;;;;;;;;;;;;5050878;28;20024;-60
2023/04/25 12:43:10;;;;;;;;;;;;;;;;;;5050277;28;19931;-60
2023/04/25 12:45:36;;;;;;;;;;;;;;;;;;5051284;28;20410;-59
2023/04/25 12:48:02;;;;;;;;;;;;;;;;;;5051335;28;19939;-59
2023/04/25 12:50:28;;;;;;;;;;;;;;;;;;5050854;28;19928;-58
2023/04/25 12:52:54;;;;;;;;;;;;;;;;;;5050223;28;19966;-60
2023/04/25 12:55:20;;;;;;;;;;;;;;;;;;5050362;28;19929;-60
2023/04/25 12:57:46;;;;;;;;;;;;;;;;;;5050512;28;19928;-60
2023/04/25 13:00:14;;;;;;;;;;;;;;;;;;5050520;28;19950;-61
2023/04/25 13:02:40;;;;;;;;;;;;;;;;;;5051853;28;19925;-60
2023/04/25 13:05:07;;;;;;;;;;;;;;;;;;5049380;28;20302;-59
2023/04/25 13:07:33;;;;;;;;;;;;;;;;;;5046307;28;19960;-59
2023/04/25 13:10:00;;;;;;;;;;;;;;;;;;5051779;28;19975;-60
2023/04/25 13:12:26;;;;;;;;;;;;;;;;;;5050957;28;19935;-59
2023/04/25 13:14:52;;;;;;;;;;;;;;;;;;5051783;28;19921;-59
2023/04/25 13:17:18;;;;;;;;;;;;;;;;;;5051403;28;19971;-60
2023/04/25 13:19:44;;;;;;;;;;;;;;;;;;5051056;28;19925;-60
2023/04/25 13:22:10;;;;;;;;;;;;;;;;;;5051295;28;19952;-59
2023/04/25 13:24:36;;;;;;;;;;;;;;;;;;5050826;28;19958;-60
2023/04/25 13:27:02;;;;;;;;;;;;;;;;;;5046932;28;19921;-61
2023/04/25 13:29:28;;;;;;;;;;;;;;;;;;5049817;28;19920;-61
2023/04/25 13:31:54;;;;;;;;;;;;;;;;;;5050908;28;19929;-60
2023/04/25 13:34:20;;;;;;;;;;;;;;;;;;5049791;28;19925;-61
2023/04/25 13:36:46;;;;;;;;;;;;;;;;;;5049667;28;19928;-60
2023/04/25 13:39:12;;;;;;;;;;;;;;;;;;5050734;28;19924;-59
2023/04/25 13:41:38;;;;;;;;;;;;;;;;;;5050827;28;20035;-59
2023/04/25 13:44:04;;;;;;;;;;;;;;;;;;5050263;28;19947;-60
2023/04/25 13:46:30;;;;;;;;;;;;;;;;;;5051299;28;19924;-59
2023/04/25 13:48:56;;;;;;;;;;;;;;;;;;5050426;28;19982;-59
2023/04/25 13:51:22;;;;;;;;;;;;;;;;;;5050181;28;19925;-58
2023/04/25 13:53:48;;;;;;;;;;;;;;;;;;5049585;28;19948;-59
2023/04/25 13:56:14;;;;;;;;;;;;;;;;;;5050802;28;19920;-59
2023/04/25 13:58:40;;;;;;;;;;;;;;;;;;5050363;28;19944;-61
2023/04/25 14:01:06;;;;;;;;;;;;;;;;;;5050511;28;19921;-60
2023/04/25 14:03:32;;;;;;;;;;;;;;;;;;5050550;28;19932;-60
2023/04/25 14:05:58;;;;;;;;;;;;;;;;;;5050020;28;19925;-61
2023/04/25 14:08:24;;;;;;;;;;;;;;;;;;5050098;28;19939;-62
2023/04/25 14:10:49;;;;;;;;;;;;;;;;;;5050670;28;19936;-60
2023/04/25 14:13:15;;;;;;;;;;;;;;;;;;5049743;28;20033;-61
2023/04/25 14:15:41;;;;;;;;;;;;;;;;;;5048999;28;19940;-62
2023/04/25 14:18:07;;;;;;;;;;;;;;;;;;5049965;28;19921;-61
2023/04/25 14:20:34;;;;;;;;;;;;;;;;;;5049938;28;20015;-61
2023/04/25 14:23:00;;;;;;;;;;;;;;;;;;5050692;28;19929;-61
2023/04/25 14:25:26;;;;;;;;;;;;;;;;;;5046680;28;20016;-61
2023/04/25 14:27:52;;;;;;;;;;;;;;;;;;5047019;28;19920;-61
2023/04/25 14:30:18;;;;;;;;;;;;;;;;;;5051064;28;19993;-60
2023/04/25 14:32:45;;;;;;;;;;;;;;;;;;5050949;28;19950;-61
2023/04/25 14:35:11;;;;;;;;;;;;;;;;;;5050497;28;19947;-60
2023/04/25 14:37:37;;;;;;;;;;;;;;;;;;5050927;28;19924;-61
2023/04/25 14:40:04;;;;;;;;;;;;;;;;;;5050835;28;19955;-60
2023/04/25 14:42:30;;;;;;;;;;;;;;;;;;5050215;28;20373;-61
2023/04/25 14:44:56;;;;;;;;;;;;;;;;;;5050548;28;19929;-60
2023/04/25 14:47:22;;;;;;;;;;;;;;;;;;5050605;28;19975;-60
2023/04/25 14:49:53;;;;;;;;;;;;;;;;;;5049571;28;19920;-61
2023/04/25 14:52:19;;;;;;;;;;;;;;;;;;5050234;28;19974;-61
2023/04/25 14:54:45;;;;;;;;;;;;;;;;;;5050885;28;19971;-61
2023/04/25 14:57:12;;;;;;;;;;;;;;;;;;5050204;28;19920;-61
2023/04/25 14:59:38;;;;;;;;;;;;;;;;;;5050710;28;20260;-61
2023/04/25 15:02:04;;;;;;;;;;;;;;;;;;5050478;28;19924;-60
2023/04/25 15:04:30;;;;;;;;;;;;;;;;;;5049965;28;20378;-60
2023/04/25 15:06:57;;;;;;;;;;;;;;;;;;5050434;28;19925;-60
2023/04/25 15:09:23;;;;;;;;;;;;;;;;;;5050184;28;20015;-60
2023/04/25 15:11:50;;;;;;;;;;;;;;;;;;5049874;28;20437;-60
2023/04/25 15:14:15;;;;;;;;;;;;;;;;;;5050732;28;19925;-60
2023/04/25 15:16:41;;;;;;;;;;;;;;;;;;5050574;28;20275;-60
2023/04/25 15:19:07;;;;;;;;;;;;;;;;;;5049978;28;19994;-61
2023/04/25 15:21:34;;;;;;;;;;;;;;;;;;5053513;28;19921;-61
2023/04/25 15:24:00;;;;;;;;;;;;;;;;;;5053809;28;19928;-61
2023/04/25 15:26:26;;;;;;;;;;;;;;;;;;5053481;28;20408;-61
2023/04/25 15:28:52;;;;;;;;;;;;;;;;;;5053972;28;19931;-61
2023/04/25 15:31:18;;;;;;;;;;;;;;;;;;5054120;28;20280;-61
2023/04/25 15:33:44;;;;;;;;;;;;;;;;;;5053455;28;19928;-61
2023/04/25 15:36:10;;;;;;;;;;;;;;;;;;5053921;28;19933;-60
2023/04/25 15:38:36;;;;;;;;;;;;;;;;;;5053720;28;19929;-60
2023/04/25 15:41:02;;;;;;;;;;;;;;;;;;5053058;28;20395;-60
2023/04/25 15:43:28;;;;;;;;;;;;;;;;;;5053891;28;20003;-60
2023/04/25 15:45:54;;;;;;;;;;;;;;;;;;5053530;28;20007;-60
2023/04/25 15:48:20;;;;;;;;;;;;;;;;;;5053205;28;19964;-60
2023/04/25 15:50:46;;;;;;;;;;;;;;;;;;5053636;28;20009;-60
2023/04/25 15:53:12;;;;;;;;;;;;;;;;;;5053610;28;19921;-60
2023/04/25 15:55:38;;;;;;;;;;;;;;;;;;5034943;28;19920;-60
2023/04/25 15:58:04;;;;;;;;;;;;;;;;;;5053517;28;19955;-61
2023/04/25 16:00:33;;;;;;;;;;;;;;;;;;5053273;28;19935;-61
2023/04/25 16:02:59;;;;;;;;;;;;;;;;;;5052983;28;19925;-61
2023/04/25 16:05:25;;;;;;;;;;;;;;;;;;5053412;28;19925;-61
2023/04/25 16:07:52;;;;;;;;;;;;;;;;;;5053443;28;20274;-60
2023/04/25 16:10:21;;;;;;;;;;;;;;;;;;5052677;28;19932;-60
2023/04/25 16:12:47;;;;;;;;;;;;;;;;;;5053147;28;19921;-60
2023/04/25 16:15:13;;;;;;;;;;;;;;;;;;5052965;28;20260;-60
2023/04/25 16:17:40;;;;;;;;;;;;;;;;;;5052503;28;19925;-60
2023/04/25 16:20:09;;;;;;;;;;;;;;;;;;5053060;28;20063;-59
2023/04/25 16:22:35;;;;;;;;;;;;;;;;;;5052682;28;20520;-60
2023/04/25 16:25:01;;;;;;;;;;;;;;;;;;5052169;28;19933;-60
2023/04/25 16:27:27;;;;;;;;;;;;;;;;;;5052588;28;20393;-60
2023/04/25 16:29:53;;;;;;;;;;;;;;;;;;5052764;28;20318;-60
2023/04/25 16:32:19;;;;;;;;;;;;;;;;;;5051609;28;19921;-60
2023/04/25 16:34:45;;;;;;;;;;;;;;;;;;5052679;28;19982;-60
2023/04/25 16:37:11;;;;;;;;;;;;;;;;;;5052609;28;19924;-60